Time;durP1;ratioP1;P1;durP2;ratioP2;P2;SDS_P1;SDS_P2;PMS_P1;PMS_P2;Temp;Humidity;BMP_temperature;BMP_pressure;BME280_temperature;BME280_humidity;BME280_pressure;Samples;Min_cycle;Max_cycle;Signal;HPM_P1;HPM_P2
2022/03/25 11:35:20;;;;;;;22.88;12.15;;;13.10;99.90;;;;;;5070760;28;21070;-75
2022/03/25 11:37:46;;;;;;;22.83;11.88;;;13.20;99.90;;;;;;5069279;28;20176;-75
2022/03/25 11:40:14;;;;;;;21.92;12.25;;;13.30;99.90;;;;;;5070496;28;20188;-75
2022/03/25 11:42:41;;;;;;;20.17;12.68;;;13.30;99.90;;;;;;5069172;28;20207;-75
2022/03/25 11:45:22;;;;;;;34.22;13.13;;;13.30;99.90;;;;;;5070429;28;20196;-75
2022/03/25 11:47:59;;;;;;;23.92;11.45;;;13.40;99.90;;;;;;5069255;28;20199;-75
2022/03/25 11:50:30;;;;;;;33.25;13.23;;;13.50;99.90;;;;;;5070473;28;20168;-76
2022/03/25 11:52:57;;;;;;;17.42;9.80;;;13.60;99.90;;;;;;5070195;28;20195;-75
2022/03/25 11:55:23;;;;;;;8.93;6.82;;;13.60;99.90;;;;;;5070294;28;20173;-78
2022/03/25 11:57:48;;;;;;;16.08;7.47;;;13.70;99.90;;;;;;5070275;28;20703;-82
2022/03/25 12:00:31;;;;;;;17.17;8.73;;;13.70;99.90;;;;;;5068948;28;20191;-83
2022/03/25 12:03:04;;;;;;;16.13;9.80;;;13.80;99.90;;;;;;5068973;28;20204;-83
2022/03/25 12:05:30;;;;;;;21.17;9.80;;;13.90;99.90;;;;;;5070164;28;20164;-84
2022/03/25 12:08:22;;;;;;;21.63;10.55;;;14.00;99.90;;;;;;5068793;28;20215;-80
2022/03/25 12:10:50;;;;;;;15.88;9.38;;;14.00;99.90;;;;;;5069981;28;20175;-75
2022/03/25 12:13:17;;;;;;;14.75;9.10;;;14.20;99.90;;;;;;5068532;28;20561;-80
2022/03/25 12:15:45;;;;;;;20.80;9.88;;;14.20;99.90;;;;;;5069923;28;20555;-89
2022/03/25 12:18:45;;;;;;;15.30;9.30;;;14.20;99.90;;;;;;5070150;28;20164;-90
2022/03/25 12:21:30;;;;;;;15.40;9.52;;;14.30;99.90;;;;;;5069799;28;20228;-83
2022/03/25 12:23:58;;;;;;;15.70;6.75;;;14.30;99.90;;;;;;5061175;28;20568;-82
2022/03/25 12:26:37;;;;;;;13.32;6.97;;;14.30;99.90;;;;;;5069655;28;20222;-82
2022/03/25 12:29:06;;;;;;;18.50;7.95;;;14.40;99.90;;;;;;5069887;28;20520;-79
2022/03/25 12:31:33;;;;;;;17.25;8.00;;;14.50;99.90;;;;;;5069487;28;20520;-79
2022/03/25 12:34:00;;;;;;;21.20;8.02;;;14.50;99.90;;;;;;5069244;28;20220;-79
2022/03/25 12:36:42;;;;;;;13.00;6.88;;;14.50;99.90;;;;;;5067987;28;20172;-81
2022/03/25 12:39:14;;;;;;;16.80;6.85;;;14.60;99.90;;;;;;5069350;28;20176;-83
2022/03/25 12:41:46;;;;;;;16.17;7.38;;;14.70;99.90;;;;;;5069350;28;20173;-82
2022/03/25 12:44:11;;;;;;;10.32;7.03;;;14.80;99.90;;;;;;5069068;28;20196;-75
2022/03/25 12:46:37;;;;;;;12.95;6.60;;;14.90;99.90;;;;;;5054020;28;20696;-76
2022/03/25 12:49:07;;;;;;;10.65;6.68;;;15.00;99.90;;;;;;5056048;28;20579;-85
2022/03/25 12:51:36;;;;;;;9.52;6.38;;;15.10;99.90;;;;;;5056224;28;20188;-85
2022/03/25 12:54:03;;;;;;;15.40;6.68;;;15.10;99.90;;;;;;5054947;28;20193;-84
2022/03/25 12:56:29;;;;;;;13.52;6.55;;;15.30;99.90;;;;;;5055368;28;20166;-84
2022/03/25 12:58:55;;;;;;;16.45;8.00;;;15.40;99.90;;;;;;5054919;28;20649;-85
2022/03/25 13:01:20;;;;;;;13.85;7.90;;;15.50;99.90;;;;;;5056018;28;20168;-70
2022/03/25 13:03:47;;;;;;;14.38;9.10;;;15.60;99.90;;;;;;5055937;28;20169;-78
2022/03/25 13:06:19;;;;;;;13.93;7.40;;;15.80;99.90;;;;;;5055974;28;20169;-78
2022/03/25 13:08:45;;;;;;;20.27;7.85;;;15.80;99.90;;;;;;5056050;28;20165;-80
2022/03/25 13:11:13;;;;;;;15.13;8.27;;;15.70;99.90;;;;;;5055872;28;20177;-78
2022/03/25 13:13:38;;;;;;;15.13;7.78;;;15.80;99.90;;;;;;5055958;28;20222;-79
2022/03/25 13:16:06;;;;;;;17.42;8.70;;;15.90;99.90;;;;;;5055768;28;20244;-78
2022/03/25 13:18:34;;;;;;;14.23;8.35;;;16.00;99.90;;;;;;5055661;28;20165;-77
2022/03/25 13:21:00;;;;;;;15.25;8.45;;;16.10;99.90;;;;;;5055674;28;20180;-77
2022/03/25 13:23:28;;;;;;;13.00;8.15;;;16.20;99.90;;;;;;5054573;28;20173;-76
2022/03/25 13:25:56;;;;;;;14.93;9.07;;;16.30;99.90;;;;;;5055634;28;20169;-77
2022/03/25 13:28:21;;;;;;;21.20;8.02;;;16.30;99.90;;;;;;5054476;28;20268;-77
2022/03/25 13:30:52;;;;;;;13.25;8.45;;;16.40;99.90;;;;;;5055464;28;20244;-78
2022/03/25 13:33:22;;;;;;;12.32;8.95;;;16.50;99.90;;;;;;5055114;28;20224;-78
2022/03/25 13:35:54;;;;;;;21.90;10.10;;;16.70;99.90;;;;;;5055626;28;20179;-78
2022/03/25 13:38:24;;;;;;;19.63;9.20;;;16.80;99.90;;;;;;5055607;28;20219;-80
2022/03/25 13:40:52;;;;;;;12.90;8.80;;;16.90;99.90;;;;;;5055557;28;20567;-75
2022/03/25 13:43:21;;;;;;;22.15;10.43;;;16.90;99.90;;;;;;5054100;28;20212;-76
2022/03/25 13:46:20;;;;;;;16.40;9.20;;;16.90;99.90;;;;;;5055253;28;20214;-75
2022/03/25 13:48:52;;;;;;;14.93;9.43;;;17.00;99.90;;;;;;5050338;28;20230;-75
2022/03/25 13:51:24;;;;;;;15.75;9.10;;;17.00;99.90;;;;;;5055167;28;20181;-75
2022/03/25 13:54:01;;;;;;;16.60;9.80;;;17.00;99.90;;;;;;5053859;28;20200;-74
2022/03/25 13:56:36;;;;;;;15.02;9.45;;;17.20;99.90;;;;;;5052955;28;20633;-74
2022/03/25 13:59:03;;;;;;;21.88;11.00;;;17.10;99.90;;;;;;5054987;28;20493;-75
2022/03/25 14:01:35;;;;;;;17.42;9.05;;;17.30;99.90;;;;;;5055262;28;20183;-75
2022/03/25 14:04:15;;;;;;;22.17;9.73;;;17.30;99.90;;;;;;5054707;28;20177;-76
2022/03/25 14:07:02;;;;;;;20.30;10.90;;;17.40;99.90;;;;;;5055013;28;20176;-80
2022/03/25 14:09:32;;;;;;;17.05;9.45;;;17.40;99.90;;;;;;5051280;28;20185;-76
2022/03/25 14:12:16;;;;;;;20.05;9.50;;;17.40;99.90;;;;;;5054787;28;20168;-77
2022/03/25 14:15:03;;;;;;;16.70;9.40;;;17.30;99.90;;;;;;5054661;28;20212;-73
2022/03/25 14:17:37;;;;;;;24.90;10.20;;;17.40;99.90;;;;;;5054219;28;20234;-73
2022/03/25 14:20:16;;;;;;;19.35;9.45;;;17.40;99.90;;;;;;5054629;28;20498;-73
2022/03/25 14:22:45;;;;;;;18.05;10.13;;;17.60;99.90;;;;;;5054401;28;20183;-73
2022/03/25 14:25:13;;;;;;;14.35;8.80;;;17.70;99.90;;;;;;5053388;28;20686;-73
2022/03/25 14:27:44;;;;;;;17.95;9.77;;;17.90;99.90;;;;;;5053431;28;20165;-73
2022/03/25 14:30:10;;;;;;;27.95;11.38;;;17.80;96.10;;;;;;5054446;28;20653;-73
2022/03/25 14:32:36;;;;;;;17.20;10.25;;;17.80;99.00;;;;;;5054361;28;20176;-73
2022/03/25 14:35:02;;;;;;;22.88;14.13;;;17.80;99.50;;;;;;5054800;28;20216;-83
2022/03/25 14:37:28;;;;;;;22.40;11.98;;;17.90;99.90;;;;;;5054472;28;20198;-81
2022/03/25 14:39:54;;;;;;;19.52;11.43;;;18.00;98.70;;;;;;5054211;28;20164;-84
2022/03/25 14:42:29;;;;;;;20.95;10.27;;;18.10;98.20;;;;;;5053011;28;20188;-89
2022/03/25 14:45:05;;;;;;;22.17;9.65;;;18.10;98.00;;;;;;5053338;28;20175;-83
2022/03/25 14:47:55;;;;;;;17.92;9.88;;;18.00;97.50;;;;;;5052810;28;20180;-81
2022/03/25 14:50:29;;;;;;;13.75;10.15;;;18.00;97.90;;;;;;5052578;28;20176;-77
2022/03/25 14:52:54;;;;;;;13.75;9.68;;;18.60;96.90;;;;;;5052665;28;20526;-79
2022/03/25 14:55:20;;;;;;;17.85;10.13;;;18.10;98.80;;;;;;5054063;28;20169;-78
2022/03/25 14:57:47;;;;;;;25.00;11.43;;;18.10;96.40;;;;;;5054191;28;20161;-78
2022/03/25 15:00:13;;;;;;;19.10;10.35;;;18.10;96.50;;;;;;5053919;28;20179;-81
2022/03/25 15:02:39;;;;;;;20.83;10.77;;;18.10;98.00;;;;;;5054026;28;20165;-84
2022/03/25 15:05:05;;;;;;;14.70;9.48;;;18.10;96.20;;;;;;5053781;28;20196;-89
2022/03/25 15:07:31;;;;;;;21.50;10.13;;;18.10;97.70;;;;;;5053777;28;20179;-84
2022/03/25 15:09:56;;;;;;;18.17;10.75;;;18.10;97.30;;;;;;5053516;28;20260;-79
2022/03/25 15:12:22;;;;;;;20.25;11.27;;;18.20;96.80;;;;;;5053721;28;20180;-79
2022/03/25 15:14:48;;;;;;;15.80;10.02;;;18.30;97.90;;;;;;5053804;28;20590;-87
2022/03/25 15:17:17;;;;;;;15.38;10.75;;;18.30;97.30;;;;;;5052550;28;20212;-85
2022/03/25 15:19:43;;;;;;;24.17;11.07;;;18.30;98.30;;;;;;5053636;28;20215;-90
2022/03/25 15:22:08;;;;;;;19.52;11.40;;;18.30;96.30;;;;;;5052593;28;20184;-80
2022/03/25 15:24:34;;;;;;;17.10;10.20;;;18.30;96.10;;;;;;5053508;28;20193;-86
2022/03/25 15:27:00;;;;;;;13.82;9.52;;;18.30;95.50;;;;;;5052388;28;20165;-82
2022/03/25 15:34:53;;;;;;;14.68;8.98;;;18.40;96.00;;;;;;5053188;28;20746;-82
2022/03/25 15:37:19;;;;;;;14.68;8.52;;;18.50;96.70;;;;;;5053365;28;20176;-87
2022/03/25 15:40:00;;;;;;;15.25;8.90;;;18.40;95.20;;;;;;5051828;28;20169;-84
2022/03/25 15:42:28;;;;;;;17.25;8.93;;;18.10;94.00;;;;;;5052019;28;20273;-86
2022/03/25 15:44:56;;;;;;;16.63;8.52;;;18.20;94.50;;;;;;5051243;28;20200;-85
2022/03/25 15:47:22;;;;;;;13.13;7.80;;;18.10;94.40;;;;;;5052520;28;20196;-80
2022/03/25 15:49:48;;;;;;;19.65;8.60;;;18.10;94.50;;;;;;5052307;28;20197;-82
2022/03/25 15:52:14;;;;;;;11.10;8.15;;;18.10;93.70;;;;;;5053270;28;20190;-81
2022/03/25 15:54:40;;;;;;;20.30;8.40;;;18.00;92.70;;;;;;5053295;28;20174;-82
2022/03/25 15:57:07;;;;;;;19.98;8.05;;;18.00;92.90;;;;;;5052082;28;20172;-74
2022/03/25 15:59:32;;;;;;;17.90;8.57;;;17.90;92.10;;;;;;5053324;28;20172;-74
2022/03/25 16:01:59;;;;;;;13.10;8.00;;;17.90;92.30;;;;;;5053186;28;20238;-76
2022/03/25 16:04:24;;;;;;;14.98;9.07;;;17.90;93.50;;;;;;5053190;28;20192;-76
2022/03/25 16:06:53;;;;;;;19.40;8.65;;;17.90;93.50;;;;;;5051863;28;20534;-74
2022/03/25 16:09:20;;;;;;;16.65;8.45;;;18.00;92.60;;;;;;5053252;28;20210;-73
2022/03/25 16:11:47;;;;;;;17.83;8.52;;;18.00;93.50;;;;;;5053104;28;20164;-73
2022/03/25 16:14:16;;;;;;;17.00;9.27;;;18.00;93.10;;;;;;5053078;28;20507;-75
2022/03/25 16:16:44;;;;;;;19.58;8.77;;;17.90;93.60;;;;;;5053021;28;20255;-71
2022/03/25 16:19:12;;;;;;;13.02;8.45;;;18.00;93.90;;;;;;5052999;28;20164;-72
2022/03/25 16:21:40;;;;;;;18.35;8.88;;;17.80;92.10;;;;;;5056217;28;20247;-72
2022/03/25 16:24:06;;;;;;;13.57;8.30;;;17.80;93.00;;;;;;5056784;28;20208;-75
2022/03/25 16:26:33;;;;;;;17.23;8.95;;;17.70;93.30;;;;;;5056855;28;20621;-78
2022/03/25 16:28:59;;;;;;;18.23;8.75;;;17.70;93.40;;;;;;5057156;28;20176;-78
2022/03/25 16:31:25;;;;;;;10.15;8.43;;;17.60;93.80;;;;;;5056558;28;20168;-78
2022/03/25 16:33:52;;;;;;;16.45;9.77;;;17.50;93.40;;;;;;5056479;28;20224;-77
2022/03/25 16:36:17;;;;;;;10.18;8.25;;;17.40;92.90;;;;;;5056649;28;20255;-76
2022/03/25 16:38:43;;;;;;;17.40;9.95;;;17.40;93.90;;;;;;5056666;28;20577;-77
2022/03/25 16:41:09;;;;;;;16.35;9.75;;;17.40;94.80;;;;;;5056605;28;20190;-76
2022/03/25 16:43:35;;;;;;;16.40;9.82;;;17.30;93.80;;;;;;5056226;28;20215;-77
2022/03/25 16:46:00;;;;;;;23.15;10.70;;;17.30;94.60;;;;;;5056571;28;20168;-71
2022/03/25 16:48:26;;;;;;;25.17;10.77;;;17.30;95.40;;;;;;5056293;28;20217;-71
2022/03/25 16:50:52;;;;;;;16.58;10.27;;;17.10;94.90;;;;;;5056420;28;20633;-71
2022/03/25 16:53:17;;;;;;;15.43;10.18;;;17.00;95.60;;;;;;5056350;28;20169;-71
2022/03/25 16:55:43;;;;;;;21.83;10.30;;;17.00;95.90;;;;;;5056564;28;20177;-71
2022/03/25 16:58:09;;;;;;;23.10;11.68;;;16.80;96.30;;;;;;5056247;28;20548;-71
2022/03/25 17:00:34;;;;;;;17.70;10.75;;;16.70;97.40;;;;;;5055832;28;20169;-71
2022/03/25 17:03:00;;;;;;;21.77;10.80;;;16.60;97.60;;;;;;5055684;28;20203;-71
2022/03/25 17:05:26;;;;;;;16.67;10.85;;;16.60;97.70;;;;;;5055767;28;20244;-71
2022/03/25 17:07:52;;;;;;;17.38;11.55;;;16.50;98.40;;;;;;5055657;28;20165;-71
2022/03/25 17:10:17;;;;;;;14.60;10.32;;;16.30;98.40;;;;;;5055669;28;20523;-71
2022/03/25 17:12:43;;;;;;;21.50;12.35;;;16.30;98.30;;;;;;5055618;28;20214;-71
2022/03/25 17:15:10;;;;;;;24.23;10.85;;;16.20;98.10;;;;;;5055623;28;20210;-71
2022/03/25 17:17:37;;;;;;;18.63;11.60;;;16.10;99.00;;;;;;5055481;28;20169;-71
2022/03/25 17:20:04;;;;;;;19.60;11.15;;;15.90;99.90;;;;;;5055530;28;20279;-71
2022/03/25 17:22:31;;;;;;;19.67;11.57;;;15.80;99.50;;;;;;5054175;28;20173;-71
2022/03/25 17:24:57;;;;;;;20.55;11.35;;;15.70;99.90;;;;;;5055315;28;20197;-71
2022/03/25 17:27:23;;;;;;;23.52;12.48;;;15.60;99.90;;;;;;5055384;28;20516;-71
2022/03/25 17:29:48;;;;;;;22.27;12.18;;;15.40;99.90;;;;;;5055360;28;20648;-71
2022/03/25 17:32:14;;;;;;;18.42;11.90;;;15.20;99.90;;;;;;5054805;28;20576;-71
2022/03/25 17:34:40;;;;;;;22.13;11.40;;;15.10;99.90;;;;;;5055253;28;20278;-71
2022/03/25 17:37:05;;;;;;;24.55;12.95;;;15.00;99.90;;;;;;5055223;28;20169;-71
2022/03/25 17:39:31;;;;;;;19.75;12.75;;;14.70;99.90;;;;;;5053871;28;20283;-71
2022/03/25 17:41:57;;;;;;;23.67;13.93;;;14.60;99.90;;;;;;5055074;28;20178;-71
2022/03/25 17:44:23;;;;;;;24.23;13.30;;;14.50;99.90;;;;;;5055003;28;20642;-71
2022/03/25 17:46:48;;;;;;;25.13;13.80;;;14.40;99.90;;;;;;5054968;28;20165;-70
2022/03/25 17:49:14;;;;;;;25.92;13.52;;;14.20;99.90;;;;;;5055010;28;20236;-71
2022/03/25 17:51:40;;;;;;;24.33;13.65;;;14.00;99.90;;;;;;5053457;28;20790;-71
2022/03/25 17:54:08;;;;;;;22.80;13.18;;;13.90;99.90;;;;;;5054974;28;20173;-71
2022/03/25 17:56:34;;;;;;;25.10;13.80;;;13.80;99.90;;;;;;5054864;28;20165;-71
2022/03/25 17:59:01;;;;;;;25.15;13.52;;;13.60;99.90;;;;;;5054708;28;20538;-71
2022/03/25 18:01:27;;;;;;;27.77;13.63;;;13.50;99.90;;;;;;5054769;28;20169;-71
